Time;durP1;ratioP1;P1;durP2;ratioP2;P2;SDS_P1;SDS_P2;PMS_P1;PMS_P2;Temp;Humidity;BMP_temperature;BMP_pressure;BME280_temperature;BME280_humidity;BME280_pressure;Samples;Min_cycle;Max_cycle;Signal;HPM_P1;HPM_P2
2021/10/17 00:00:27;;;;;;;16.23;7.82;;;;;;;8.43;88.16;101900.78;10452750;28;20049;-82
2021/10/17 00:05:32;;;;;;;10.48;7.10;;;;;;;8.45;88.33;101878.53;10457779;28;20080;-83
2021/10/17 00:10:36;;;;;;;18.77;6.65;;;;;;;8.50;87.38;101878.69;10459125;28;20493;-82
2021/10/17 00:15:39;;;;;;;17.95;7.70;;;;;;;8.44;87.48;101876.75;10460588;28;20053;-82
2021/10/17 00:20:41;;;;;;;22.42;8.30;;;;;;;8.33;89.99;101879.69;10459230;28;20065;-83
2021/10/17 00:25:42;;;;;;;13.52;6.53;;;;;;;8.44;87.11;101879.34;10460360;28;20057;-82
2021/10/17 00:30:44;;;;;;;16.58;7.78;;;;;;;8.46;85.91;101879.41;10459166;28;20060;-82
2021/10/17 00:35:46;;;;;;;11.38;6.72;;;;;;;8.58;85.32;101876.44;10477932;28;20408;-83
2021/10/17 00:40:47;;;;;;;13.65;6.47;;;;;;;8.51;85.99;101877.91;10460669;28;20094;-82
2021/10/17 00:45:49;;;;;;;11.60;6.18;;;;;;;8.49;84.55;101884.69;10458342;28;20055;-82
2021/10/17 00:50:50;;;;;;;13.02;6.93;;;;;;;8.48;84.24;101876.06;10469364;28;20060;-82
2021/10/17 00:55:53;;;;;;;10.27;6.55;;;;;;;8.45;84.70;101870.81;10457431;28;20448;-83
2021/10/17 01:00:55;;;;;;;20.15;8.20;;;;;;;8.32;89.28;101870.19;10458112;28;20094;-82
2021/10/17 01:05:57;;;;;;;13.52;6.68;;;;;;;8.45;85.44;101867.31;10458001;28;20053;-82
2021/10/17 01:10:58;;;;;;;9.85;6.13;;;;;;;8.38;86.14;101875.63;10457220;28;20049;-82
2021/10/17 01:16:00;;;;;;;11.60;6.68;;;;;;;8.23;91.55;101858.72;10456139;28;20060;-82
2021/10/17 01:21:02;;;;;;;9.60;6.75;;;;;;;8.32;90.33;101865.91;10457713;28;20049;-82
2021/10/17 01:26:04;;;;;;;9.88;6.32;;;;;;;8.13;91.91;101873.72;10458197;28;20057;-82
2021/10/17 01:31:05;;;;;;;11.25;6.22;;;;;;;8.16;92.81;101863.53;10457183;28;20053;-83
2021/10/17 01:36:07;;;;;;;13.63;7.30;;;;;;;8.37;87.87;101854.13;10456273;28;20412;-83
2021/10/17 01:41:08;;;;;;;12.00;6.32;;;;;;;8.37;87.18;101846.41;10483089;28;20052;-83
2021/10/17 01:46:10;;;;;;;15.23;6.88;;;;;;;8.34;88.87;101843.69;10469865;28;20057;-83
2021/10/17 01:51:11;;;;;;;15.52;7.05;;;;;;;8.36;87.07;101841.19;10458403;28;20079;-83
2021/10/17 01:56:13;;;;;;;16.88;7.80;;;;;;;8.27;89.32;101840.78;10455228;28;20044;-83
2021/10/17 02:01:14;;;;;;;13.55;7.53;;;;;;;8.19;90.48;101831.03;10460902;28;20056;-82
2021/10/17 02:06:16;;;;;;;19.42;7.60;;;;;;;8.21;89.70;101831.09;10465880;28;20057;-83
2021/10/17 02:11:18;;;;;;;16.83;7.57;;;;;;;8.24;89.09;101833.81;10476832;28;20458;-82
2021/10/17 02:16:19;;;;;;;16.75;7.90;;;;;;;8.12;92.36;101836.78;10462728;28;20071;-83
2021/10/17 02:21:21;;;;;;;16.10;8.02;;;;;;;8.14;91.06;101836.81;10454245;28;20045;-83
2021/10/17 02:26:23;;;;;;;15.75;7.50;;;;;;;8.14;93.29;101837.69;10469376;28;20053;-82
2021/10/17 02:31:25;;;;;;;13.90;8.50;;;;;;;8.11;91.84;101840.19;10454048;28;20053;-82
2021/10/17 02:36:26;;;;;;;15.80;8.00;;;;;;;8.14;93.37;101832.53;10453850;28;20493;-83
2021/10/17 02:41:28;;;;;;;16.73;8.20;;;;;;;8.14;92.37;101832.53;10461105;28;20429;-83
2021/10/17 02:46:29;;;;;;;10.90;6.80;;;;;;;8.10;91.17;101820.34;10455077;28;20053;-82
2021/10/17 02:51:31;;;;;;;13.82;8.18;;;;;;;8.07;92.97;101827.09;10465288;28;20409;-82
2021/10/17 02:56:32;;;;;;;10.35;7.57;;;;;;;8.04;92.03;101834.69;10453850;28;20495;-82
2021/10/17 03:01:34;;;;;;;11.82;7.18;;;;;;;7.98;93.30;101832.72;10454394;28;20053;-82
2021/10/17 03:06:36;;;;;;;15.57;7.45;;;;;;;8.03;92.68;101838.97;10461136;28;20087;-82
2021/10/17 03:11:38;;;;;;;13.55;8.43;;;;;;;7.95;94.33;101840.34;10497035;28;20048;-82
2021/10/17 03:16:42;;;;;;;15.32;8.07;;;;;;;7.97;91.44;101841.28;10458116;28;20044;-82
2021/10/17 03:21:45;;;;;;;11.63;7.10;;;;;;;7.94;94.13;101838.56;10454467;28;20136;-82
2021/10/17 03:26:46;;;;;;;11.75;7.45;;;;;;;7.92;93.21;101835.06;10454157;28;20497;-82
2021/10/17 03:31:49;;;;;;;14.95;8.30;;;;;;;7.88;93.60;101833.16;10454041;28;20451;-83
2021/10/17 03:36:50;;;;;;;16.35;8.75;;;;;;;8.02;91.95;101833.75;10453629;28;20171;-82
2021/10/17 03:41:52;;;;;;;19.60;8.48;;;;;;;7.91;93.21;101826.44;10461332;28;20045;-83
2021/10/17 03:46:53;;;;;;;19.70;9.13;;;;;;;7.94;92.12;101816.28;10452836;28;20485;-83
2021/10/17 03:51:55;;;;;;;11.57;7.95;;;;;;;7.92;92.12;101823.06;10473082;28;20505;-82
2021/10/17 03:56:56;;;;;;;16.15;8.20;;;;;;;7.88;92.41;101818.59;10461412;28;20099;-82
2021/10/17 04:01:58;;;;;;;15.38;9.13;;;;;;;7.92;90.48;101815.31;10461561;28;20115;-83
2021/10/17 04:07:00;;;;;;;12.55;7.78;;;;;;;7.87;91.86;101818.53;10460615;28;20049;-83
2021/10/17 04:12:01;;;;;;;16.35;8.65;;;;;;;7.80;92.67;101819.97;10459807;28;20057;-83
2021/10/17 04:17:04;;;;;;;18.25;9.45;;;;;;;7.84;92.31;101815.84;10474717;28;20063;-82
2021/10/17 04:22:05;;;;;;;16.35;8.23;;;;;;;7.85;91.51;101810.75;10500960;28;20106;-83
2021/10/17 04:27:08;;;;;;;20.10;8.75;;;;;;;7.79;92.99;101810.50;10483554;28;20407;-82
2021/10/17 04:32:10;;;;;;;20.35;9.93;;;;;;;7.64;94.11;101826.16;10459895;28;20045;-82
2021/10/17 04:37:12;;;;;;;24.23;20.13;;;;;;;7.64;95.06;101823.59;10464957;28;20052;-82
2021/10/17 04:42:13;;;;;;;17.80;11.25;;;;;;;7.58;94.96;101823.34;10486233;28;20097;-82
2021/10/17 04:47:15;;;;;;;15.05;8.38;;;;;;;7.40;98.37;101823.44;10462763;28;20045;-83
2021/10/17 04:52:16;;;;;;;21.30;10.43;;;;;;;7.56;95.30;101809.53;10462583;28;20057;-82
2021/10/17 04:57:18;;;;;;;18.02;9.18;;;;;;;7.65;94.35;101820.19;10468471;28;20507;-83
2021/10/17 05:02:19;;;;;;;21.30;10.20;;;;;;;7.58;94.46;101809.59;10475855;28;20053;-82
2021/10/17 05:07:21;;;;;;;12.38;8.80;;;;;;;7.55;93.77;101812.03;10461670;28;20061;-82
2021/10/17 05:12:22;;;;;;;16.95;8.88;;;;;;;7.47;94.87;101819.41;10456979;28;20049;-82
2021/10/17 05:17:24;;;;;;;17.98;9.70;;;;;;;7.47;95.27;101818.53;10471625;28;20049;-83
2021/10/17 05:22:25;;;;;;;21.80;11.00;;;;;;;7.47;94.86;101811.69;10476215;28;20048;-82
2021/10/17 05:27:27;;;;;;;16.42;8.93;;;;;;;7.49;94.92;101820.38;10478827;28;20061;-83
2021/10/17 05:32:28;;;;;;;14.45;9.05;;;;;;;7.52;93.32;101819.63;10491031;28;20051;-82
2021/10/17 05:37:30;;;;;;;15.77;8.75;;;;;;;7.54;92.66;101824.00;10499696;28;20047;-82
2021/10/17 05:42:31;;;;;;;19.60;9.90;;;;;;;7.53;92.64;101829.09;10468042;28;20052;-82
2021/10/17 05:47:33;;;;;;;17.08;8.75;;;;;;;7.36;94.95;101825.78;10461054;28;20052;-82
2021/10/17 05:52:34;;;;;;;20.20;9.02;;;;;;;7.44;93.07;101837.31;10480184;28;20052;-82
2021/10/17 05:57:38;;;;;;;30.10;10.57;;;;;;;7.54;91.93;101836.88;10469693;28;20045;-82
2021/10/17 06:02:41;;;;;;;23.10;9.93;;;;;;;7.47;91.07;101840.00;10475710;28;20045;-83
2021/10/17 06:07:43;;;;;;;21.73;9.80;;;;;;;7.50;92.10;101847.88;10472188;28;20049;-82
2021/10/17 06:12:44;;;;;;;15.40;9.73;;;;;;;7.50;92.82;101854.72;10465114;28;20428;-83
2021/10/17 06:17:46;;;;;;;13.80;8.88;;;;;;;7.40;92.55;101850.88;10509320;28;20045;-83
2021/10/17 06:22:48;;;;;;;16.52;9.63;;;;;;;7.39;93.78;101854.25;10461936;28;20067;-82
2021/10/17 06:27:49;;;;;;;19.98;9.27;;;;;;;7.41;93.23;101852.63;10455625;28;20061;-82
2021/10/17 06:32:51;;;;;;;19.90;9.18;;;;;;;7.43;91.92;101854.47;10454195;28;20049;-82
2021/10/17 06:37:52;;;;;;;15.93;10.05;;;;;;;7.44;92.65;101840.78;10459035;28;20060;-83
2021/10/17 06:42:56;;;;;;;24.98;9.90;;;;;;;7.50;91.27;101844.44;10455114;28;20135;-82
2021/10/17 06:47:57;;;;;;;16.23;10.38;;;;;;;7.59;89.95;101845.69;10467204;28;20068;-83
2021/10/17 06:52:59;;;;;;;13.07;9.25;;;;;;;7.64;89.90;101859.66;10473034;28;20051;-83
2021/10/17 06:58:00;;;;;;;21.02;8.65;;;;;;;7.70;89.22;101862.47;10487725;28;20045;-82
2021/10/17 07:03:02;;;;;;;15.43;9.35;;;;;;;7.76;91.18;101872.16;10468753;28;20059;-83
2021/10/17 07:08:04;;;;;;;20.73;9.63;;;;;;;7.79;90.37;101872.31;10453552;28;20091;-83
2021/10/17 07:13:06;;;;;;;17.05;9.85;;;;;;;7.85;92.34;101880.31;10456368;28;20053;-82
2021/10/17 07:18:08;;;;;;;21.73;11.63;;;;;;;8.01;90.83;101887.00;10456936;28;20140;-82
2021/10/17 07:23:09;;;;;;;16.67;9.40;;;;;;;8.03;88.94;101882.78;10457266;28;20045;-82
2021/10/17 07:28:11;;;;;;;17.15;10.18;;;;;;;8.08;89.97;101881.25;10481187;28;20378;-82
2021/10/17 07:33:12;;;;;;;20.80;8.65;;;;;;;8.15;88.66;101874.66;10473624;28;20061;-82
2021/10/17 07:38:14;;;;;;;13.02;9.20;;;;;;;8.20;88.75;101881.78;10460563;28;20049;-83
2021/10/17 07:43:15;;;;;;;18.33;9.70;;;;;;;8.30;86.74;101889.88;10461499;28;20116;-83
2021/10/17 07:48:18;;;;;;;21.02;10.50;;;;;;;8.43;87.88;101892.16;10463072;28;20056;-83
2021/10/17 07:53:19;;;;;;;22.20;10.77;;;;;;;8.58;88.48;101899.66;10469150;28;20053;-82
2021/10/17 07:58:22;;;;;;;14.60;9.77;;;;;;;8.59;86.87;101898.84;10459950;28;20519;-82
2021/10/17 08:03:23;;;;;;;12.85;9.13;;;;;;;8.75;87.09;101901.19;10460857;28;20059;-82
2021/10/17 08:08:25;;;;;;;17.45;10.05;;;;;;;8.79;87.12;101907.34;10459610;28;20049;-82
2021/10/17 08:13:28;;;;;;;18.27;9.93;;;;;;;8.86;85.55;101904.19;10460950;28;20071;-83
2021/10/17 08:18:30;;;;;;;20.17;10.15;;;;;;;8.88;85.21;101905.13;10499156;28;20051;-84
2021/10/17 08:23:31;;;;;;;14.13;10.35;;;;;;;9.01;86.45;101909.94;10471199;28;20064;-82
2021/10/17 08:28:33;;;;;;;19.05;9.98;;;;;;;9.07;84.94;101902.41;10456049;28;20409;-82
2021/10/17 08:33:37;;;;;;;15.02;9.13;;;;;;;9.08;84.48;101898.16;10478752;28;20045;-82
2021/10/17 08:38:39;;;;;;;14.50;9.07;;;;;;;9.11;82.76;101895.69;10484744;28;20051;-83
2021/10/17 08:43:42;;;;;;;14.98;10.75;;;;;;;9.15;83.97;101903.59;10477636;28;20052;-82
2021/10/17 08:48:50;;;;;;;14.05;8.45;;;;;;;9.25;82.25;101903.13;10486030;28;20094;-83
2021/10/17 08:53:51;;;;;;;13.95;9.07;;;;;;;9.35;82.48;101893.13;10475375;28;20052;-81
2021/10/17 08:58:53;;;;;;;12.43;8.70;;;;;;;9.51;82.70;101890.28;10494210;28;20053;-83
2021/10/17 09:03:58;;;;;;;15.15;8.70;;;;;;;9.60;82.32;101884.59;10485176;28;20060;-82
2021/10/17 09:09:15;;;;;;;17.65;8.95;;;;;;;9.78;82.05;101877.47;10485052;28;20055;-81
2021/10/17 09:14:18;;;;;;;13.93;9.18;;;;;;;9.86;81.15;101888.06;10470884;28;20488;-84
2021/10/17 09:19:26;;;;;;;14.90;8.55;;;;;;;9.90;79.76;101883.06;10479667;28;20409;-82
2021/10/17 09:24:41;;;;;;;10.25;7.90;;;;;;;9.94;79.29;101891.81;10470915;28;20064;-82
2021/10/17 09:30:01;;;;;;;22.25;10.05;;;;;;;9.98;80.45;101896.22;10472838;28;20052;-81
2021/10/17 09:35:06;;;;;;;16.33;9.63;;;;;;;10.08;80.02;101896.59;10447262;28;20049;-81
2021/10/17 09:40:18;;;;;;;12.85;9.20;;;;;;;10.19;79.22;101891.78;10455950;28;20044;-83
2021/10/17 09:45:22;;;;;;;13.25;8.27;;;;;;;10.51;78.99;101900.66;10457114;28;20493;-82
2021/10/17 09:50:26;;;;;;;21.50;9.48;;;;;;;10.76;78.49;101891.94;10482130;28;20123;-87
2021/10/17 09:55:28;;;;;;;18.30;9.02;;;;;;;10.78;76.69;101889.41;10483317;28;20071;-84
2021/10/17 10:00:36;;;;;;;13.38;8.90;;;;;;;10.87;75.54;101890.56;10464121;28;20052;-86
2021/10/17 10:05:40;;;;;;;13.70;7.97;;;;;;;10.90;77.21;101900.13;10481388;28;20063;-84
2021/10/17 10:10:41;;;;;;;13.30;8.23;;;;;;;11.00;76.09;101899.56;10450548;28;20049;-84
2021/10/17 10:15:44;;;;;;;15.70;8.80;;;;;;;11.09;76.10;101896.38;10482063;28;20063;-84
2021/10/17 10:20:46;;;;;;;15.55;9.13;;;;;;;11.15;75.54;101893.97;10469447;28;20048;-84
2021/10/17 10:25:51;;;;;;;11.35;7.47;;;;;;;11.19;73.84;101885.47;10455984;28;20545;-84
2021/10/17 10:30:52;;;;;;;15.32;7.72;;;;;;;11.41;75.47;101885.25;10455165;28;20485;-84
2021/10/17 10:36:03;;;;;;;15.43;8.70;;;;;;;11.30;72.54;101886.66;10463732;28;20053;-84
2021/10/17 10:41:15;;;;;;;16.60;8.68;;;;;;;11.31;72.31;101887.53;10471916;28;20045;-84
2021/10/17 10:46:29;;;;;;;19.58;8.52;;;;;;;11.29;72.80;101877.13;10455930;28;20067;-85
2021/10/17 10:51:48;;;;;;;12.82;7.68;;;;;;;11.43;73.82;101879.22;10480622;28;20045;-84
2021/10/17 10:56:52;;;;;;;15.25;7.78;;;;;;;11.49;72.27;101884.56;10482034;28;20076;-85
2021/10/17 11:02:18;;;;;;;12.90;7.68;;;;;;;11.61;71.59;101878.00;10453788;28;20392;-85
2021/10/17 11:07:26;;;;;;;12.17;8.33;;;;;;;11.92;71.06;101873.69;10463674;28;20073;-85
2021/10/17 11:12:40;;;;;;;18.80;8.00;;;;;;;12.31;69.46;101872.91;10453187;28;20060;-83
2021/10/17 11:17:52;;;;;;;10.07;7.18;;;;;;;12.35;69.36;101877.34;10458316;28;20053;-84
2021/10/17 11:22:57;;;;;;;14.82;8.10;;;;;;;12.46;69.03;101866.38;10475219;28;20117;-85
2021/10/17 11:28:00;;;;;;;11.50;7.57;;;;;;;12.45;66.72;101861.16;10457537;28;20049;-85
2021/10/17 11:33:07;;;;;;;15.43;8.27;;;;;;;13.44;65.66;101852.03;10452437;28;20049;-84
2021/10/17 11:38:09;;;;;;;13.20;7.20;;;;;;;13.33;65.53;101846.66;10489349;28;20044;-84
2021/10/17 11:43:11;;;;;;;11.27;7.65;;;;;;;13.40;65.55;101843.31;10465344;28;20088;-85
2021/10/17 11:48:15;;;;;;;15.82;8.05;;;;;;;13.73;66.78;101842.22;10463168;28;20091;-85
2021/10/17 11:53:18;;;;;;;15.65;7.38;;;;;;;13.77;64.57;101841.38;10476974;28;20107;-85
2021/10/17 11:58:25;;;;;;;10.07;7.35;;;;;;;13.02;63.34;101845.09;10460268;28;20048;-84
2021/10/17 12:03:27;;;;;;;10.38;6.78;;;;;;;13.17;63.54;101844.56;10476794;28;20075;-86
2021/10/17 12:08:34;;;;;;;7.80;6.60;;;;;;;13.24;65.21;101831.75;10464009;28;20663;-86
2021/10/17 12:13:45;;;;;;;8.80;7.40;;;;;;;12.94;64.75;101844.09;10468852;28;20048;-85
2021/10/17 12:18:49;;;;;;;15.55;7.15;;;;;;;13.10;66.92;101837.47;10461291;28;20052;-85
2021/10/17 12:23:53;;;;;;;8.00;6.38;;;;;;;13.05;68.30;101832.19;10471073;28;20136;-85
2021/10/17 12:29:18;;;;;;;10.48;7.05;;;;;;;12.94;67.06;101836.28;10478968;28;20061;-85
2021/10/17 12:34:40;;;;;;;11.18;6.68;;;;;;;13.08;69.19;101827.06;10465875;28;20056;-85
2021/10/17 12:39:42;;;;;;;11.98;7.57;;;;;;;12.85;66.45;101820.50;10505262;28;20515;-88
2021/10/17 12:44:49;;;;;;;9.82;7.32;;;;;;;12.82;66.94;101828.22;10471110;28;20500;-84
2021/10/17 12:49:50;;;;;;;11.80;7.03;;;;;;;13.14;66.36;101808.97;10481523;28;20385;-85
2021/10/17 12:54:57;;;;;;;11.80;6.95;;;;;;;13.24;66.44;101815.28;10464831;28;20056;-85
2021/10/17 13:00:01;;;;;;;12.52;7.10;;;;;;;13.19;68.48;101802.16;10457528;28;20493;-85
2021/10/17 13:05:08;;;;;;;13.48;7.13;;;;;;;13.13;68.55;101799.44;10457743;28;20057;-85
2021/10/17 13:10:14;;;;;;;13.40;7.20;;;;;;;13.26;66.56;101796.25;10484200;28;20088;-86
2021/10/17 13:15:26;;;;;;;10.73;7.35;;;;;;;13.16;65.94;101799.53;10472530;28;20412;-86
2021/10/17 13:20:29;;;;;;;13.48;6.95;;;;;;;13.06;65.74;101804.50;10444751;28;20463;-85
2021/10/17 13:25:33;;;;;;;13.80;7.47;;;;;;;12.93;65.90;101806.84;10464800;28;20064;-85
2021/10/17 13:30:35;;;;;;;13.98;8.10;;;;;;;13.05;65.88;101802.75;10456823;28;20049;-86
2021/10/17 13:35:38;;;;;;;10.65;6.80;;;;;;;13.07;66.08;101799.31;10478284;28;20060;-86
2021/10/17 13:40:40;;;;;;;10.48;6.80;;;;;;;13.19;67.47;101802.16;10462042;28;20049;-85
2021/10/17 13:45:41;;;;;;;12.82;7.78;;;;;;;12.98;68.25;101799.13;10461404;28;20044;-85
2021/10/17 13:50:43;;;;;;;12.18;6.90;;;;;;;12.91;67.93;101805.91;10466469;28;20052;-83
2021/10/17 13:55:44;;;;;;;13.25;7.20;;;;;;;12.91;68.09;101808.50;10497692;28;20063;-83
2021/10/17 14:00:46;;;;;;;9.45;6.38;;;;;;;12.89;65.92;101806.75;10496386;28;20535;-84
2021/10/17 14:05:47;;;;;;;12.75;7.03;;;;;;;12.92;67.35;101815.47;10466410;28;20519;-83
2021/10/17 14:10:50;;;;;;;11.38;5.80;;;;;;;12.90;66.04;101813.69;10479039;28;20055;-83
2021/10/17 14:15:52;;;;;;;10.85;5.68;;;;;;;12.81;68.57;101814.34;10453796;28;20411;-84
2021/10/17 14:20:54;;;;;;;11.65;6.78;;;;;;;12.80;66.84;101817.81;10452674;28;20048;-83
2021/10/17 14:25:55;;;;;;;9.75;6.05;;;;;;;12.77;66.06;101817.75;10449096;28;20169;-84
2021/10/17 14:30:57;;;;;;;13.00;6.72;;;;;;;12.68;67.42;101823.59;10448847;28;20463;-84
2021/10/17 14:36:01;;;;;;;10.60;5.93;;;;;;;12.67;65.71;101821.84;10451135;28;20056;-83
2021/10/17 14:41:02;;;;;;;8.15;6.50;;;;;;;12.74;65.43;101826.34;10452271;28;20562;-83
2021/10/17 14:46:04;;;;;;;9.93;6.88;;;;;;;12.63;67.01;101830.41;10456048;28;20056;-83
2021/10/17 14:51:07;;;;;;;13.77;6.65;;;;;;;12.65;67.56;101833.94;10464771;28;20064;-83
2021/10/17 14:56:09;;;;;;;11.90;7.20;;;;;;;12.61;67.18;101823.44;10456264;28;20065;-84
2021/10/17 15:01:10;;;;;;;9.95;6.10;;;;;;;12.62;67.18;101826.06;10469874;28;20566;-84
2021/10/17 15:06:12;;;;;;;10.00;5.95;;;;;;;12.52;69.80;101820.63;10476068;28;20049;-84
2021/10/17 15:11:20;;;;;;;12.38;6.28;;;;;;;12.49;71.60;101833.56;10468843;28;20052;-84
2021/10/17 15:16:25;;;;;;;9.10;6.25;;;;;;;12.46;72.02;101822.25;10459775;28;20041;-84
2021/10/17 15:21:30;;;;;;;11.13;5.88;;;;;;;12.47;72.68;101833.50;10482158;28;20064;-84
2021/10/17 15:26:32;;;;;;;10.05;6.45;;;;;;;12.40;73.19;101836.81;10466255;28;20420;-84
2021/10/17 15:31:36;;;;;;;11.50;6.78;;;;;;;12.31;73.54;101834.88;10461307;28;20489;-84
2021/10/17 15:36:37;;;;;;;9.30;6.78;;;;;;;12.29;73.45;101852.13;10482211;28;20051;-84
2021/10/17 15:41:39;;;;;;;11.68;6.88;;;;;;;12.20;74.01;101844.13;10463975;28;20056;-84
2021/10/17 15:46:40;;;;;;;11.50;6.55;;;;;;;12.18;77.38;101838.00;10475237;28;20076;-84
2021/10/17 15:51:42;;;;;;;12.75;6.97;;;;;;;12.10;75.17;101840.44;10498485;28;20071;-83
2021/10/17 15:56:49;;;;;;;10.15;6.95;;;;;;;12.06;77.70;101835.13;10479772;28;20057;-83
2021/10/17 16:01:50;;;;;;;11.02;6.68;;;;;;;12.08;75.01;101849.91;10462204;28;20045;-83
2021/10/17 16:06:52;;;;;;;14.88;6.78;;;;;;;11.97;76.53;101851.34;10470236;28;20125;-84
2021/10/17 16:11:54;;;;;;;12.98;8.45;;;;;;;11.82;79.48;101846.63;10468289;28;20049;-84
2021/10/17 16:16:55;;;;;;;11.80;8.02;;;;;;;11.62;82.14;101846.06;10465201;28;20049;-84
2021/10/17 16:21:57;;;;;;;10.27;6.80;;;;;;;11.62;81.32;101843.47;10460398;28;20057;-83
2021/10/17 16:26:59;;;;;;;12.57;6.63;;;;;;;11.54;83.96;101857.06;10472909;28;20057;-83
2021/10/17 16:32:02;;;;;;;11.27;7.60;;;;;;;11.40;82.63;101861.84;10472669;28;20064;-83
2021/10/17 16:37:07;;;;;;;11.27;6.20;;;;;;;11.16;87.33;101862.06;10461355;28;20489;-83
2021/10/17 16:42:09;;;;;;;9.90;8.25;;;;;;;11.23;85.19;101857.91;10469832;28;20041;-84
2021/10/17 16:47:13;;;;;;;9.45;7.50;;;;;;;11.09;87.48;101863.59;10466156;28;20060;-83
2021/10/17 16:52:15;;;;;;;27.70;15.32;;;;;;;11.03;85.88;101872.91;10484463;28;20041;-82
2021/10/17 16:57:17;;;;;;;16.08;10.48;;;;;;;10.94;86.05;101878.66;10446760;28;20068;-82
2021/10/17 17:02:23;;;;;;;12.27;8.18;;;;;;;10.94;86.96;101883.84;10458841;28;20056;-83
2021/10/17 17:07:31;;;;;;;12.07;8.10;;;;;;;11.21;81.59;101872.56;10459970;28;20143;-84
2021/10/17 17:12:32;;;;;;;10.57;7.43;;;;;;;11.08;83.39;101879.09;10460897;28;20068;-84
2021/10/17 17:17:36;;;;;;;10.82;6.43;;;;;;;11.14;79.95;101884.44;10469592;28;20387;-83
2021/10/17 17:22:43;;;;;;;;;;;;;;;11.16;79.17;101893.13;10464634;28;20068;-83
2021/10/17 17:27:48;;;;;;;9.40;6.82;;;;;;;11.15;80.61;101901.75;10471899;28;19928;-83
2021/10/17 17:32:51;;;;;;;14.65;8.05;;;;;;;11.07;80.07;101896.34;10474450;28;20049;-83
2021/10/17 17:37:56;;;;;;;11.43;8.27;;;;;;;11.06;80.25;101885.91;10456967;28;20457;-83
2021/10/17 17:43:11;;;;;;;14.52;11.70;;;;;;;11.01;83.36;101897.88;10467824;28;20052;-82
2021/10/17 17:48:19;;;;;;;12.88;9.13;;;;;;;10.88;84.28;101897.47;10483586;28;20527;-83
2021/10/17 17:53:20;;;;;;;13.27;10.93;;;;;;;11.00;82.38;101896.97;10492756;28;20041;-85
2021/10/17 17:58:23;;;;;;;10.95;9.85;;;;;;;10.73;87.80;101906.50;10470322;28;20481;-85
2021/10/17 18:03:25;;;;;;;15.30;9.95;;;;;;;10.96;84.14;101899.44;10459586;28;20059;-85
2021/10/17 18:08:28;;;;;;;14.07;9.93;;;;;;;10.95;84.26;101902.84;10460040;28;20057;-85
2021/10/17 18:13:29;;;;;;;15.05;10.23;;;;;;;10.92;83.24;101892.41;10459500;28;20079;-85
2021/10/17 18:18:31;;;;;;;22.77;11.25;;;;;;;10.83;82.82;101888.72;10480045;28;20040;-87
2021/10/17 18:23:34;;;;;;;11.13;9.23;;;;;;;10.74;84.71;101892.72;10476771;28;20056;-87
2021/10/17 18:28:37;;;;;;;13.90;9.77;;;;;;;10.78;82.07;101897.19;10482933;28;20053;-86
2021/10/17 18:33:39;;;;;;;17.52;9.35;;;;;;;10.75;81.66;101902.25;10466491;28;20155;-85
2021/10/17 18:38:42;;;;;;;12.82;8.57;;;;;;;10.79;80.54;101917.06;10440615;28;20485;-85
2021/10/17 18:43:45;;;;;;;15.50;10.15;;;;;;;10.69;82.82;101923.63;10439215;28;20080;-85
2021/10/17 18:48:46;;;;;;;18.15;9.77;;;;;;;10.74;80.83;101919.50;10436249;28;20048;-84
2021/10/17 18:53:56;;;;;;;15.60;10.18;;;;;;;10.63;82.79;101926.03;10431671;28;20095;-85
2021/10/17 18:59:04;;;;;;;12.13;9.95;;;;;;;10.49;86.65;101933.31;10431799;28;20459;-85
2021/10/17 19:04:06;;;;;;;15.68;9.52;;;;;;;10.33;90.59;101939.72;10434789;28;20421;-85
2021/10/17 19:09:17;;;;;;;31.58;16.20;;;;;;;10.49;87.67;101922.97;10431733;28;20042;-86
2021/10/17 19:14:28;;;;;;;23.38;16.00;;;;;;;10.46;86.31;101915.13;10455185;28;20481;-84
2021/10/17 19:19:29;;;;;;;25.95;19.35;;;;;;;10.40;86.86;101919.25;10468027;28;20055;-85
2021/10/17 19:24:32;;;;;;;19.48;15.07;;;;;;;10.32;87.70;101913.78;10452042;28;20048;-85
2021/10/17 19:29:34;;;;;;;22.25;16.40;;;;;;;10.28;90.13;101911.94;10463304;28;20453;-86
2021/10/17 19:34:45;;;;;;;16.55;12.60;;;;;;;10.44;86.77;101918.50;10483543;28;20055;-86
2021/10/17 19:39:47;;;;;;;19.83;11.98;;;;;;;10.40;87.04;101907.19;10501920;28;20074;-86
2021/10/17 19:44:51;;;;;;;20.85;11.98;;;;;;;10.40;86.70;101912.34;10470119;28;20053;-86
2021/10/17 19:49:55;;;;;;;12.80;10.50;;;;;;;10.37;87.18;101919.13;10503030;28;20048;-86
2021/10/17 19:55:00;;;;;;;13.80;10.77;;;;;;;10.38;87.62;101936.38;10457342;28;20496;-85
2021/10/17 20:00:07;;;;;;;17.88;10.82;;;;;;;10.44;85.38;101944.38;10485196;28;20052;-86
2021/10/17 20:05:16;;;;;;;22.08;12.68;;;;;;;10.48;86.11;101946.22;10496578;28;20061;-85
2021/10/17 20:10:17;;;;;;;19.10;14.30;;;;;;;10.40;86.77;101943.41;10490940;28;20047;-86
2021/10/17 20:15:22;;;;;;;16.80;13.30;;;;;;;10.32;89.65;101943.16;10500795;28;20088;-86
2021/10/17 20:20:25;;;;;;;15.80;12.47;;;;;;;10.52;85.06;101942.91;10500060;28;20059;-85
2021/10/17 20:25:27;;;;;;;20.13;12.85;;;;;;;10.46;84.76;101948.78;10488179;28;20057;-85
2021/10/17 20:30:29;;;;;;;16.98;11.30;;;;;;;10.34;86.45;101949.25;10501764;28;20507;-85
2021/10/17 20:35:34;;;;;;;17.90;13.73;;;;;;;10.24;87.07;101946.28;10486983;28;20054;-86
2021/10/17 20:40:37;;;;;;;21.67;15.40;;;;;;;10.03;90.15;101951.56;10495159;28;20048;-86
2021/10/17 20:45:39;;;;;;;21.13;15.93;;;;;;;9.88;92.41;101945.88;10469963;28;20164;-85
2021/10/17 20:50:41;;;;;;;20.88;14.93;;;;;;;9.87;92.79;101947.56;10482506;28;20067;-86
2021/10/17 20:55:42;;;;;;;18.45;13.93;;;;;;;10.02;91.01;101960.16;10497411;28;20062;-86
2021/10/17 21:00:44;;;;;;;29.85;19.00;;;;;;;9.96;91.93;101960.81;10485993;28;20131;-87
2021/10/17 21:05:46;;;;;;;29.50;19.38;;;;;;;9.80;92.79;101951.63;10488337;28;20061;-84
2021/10/17 21:10:47;;;;;;;79.13;42.20;;;;;;;9.65;94.01;101958.84;10486002;28;20049;-85
2021/10/17 21:15:49;;;;;;;40.05;26.00;;;;;;;9.63;94.48;101962.19;10483045;28;20131;-84
2021/10/17 21:20:51;;;;;;;31.40;23.55;;;;;;;9.53;94.84;101958.41;10499715;28;20502;-84
2021/10/17 21:25:52;;;;;;;23.70;16.15;;;;;;;9.35;96.83;101971.47;10492943;28;20114;-83
2021/10/17 21:30:54;;;;;;;18.77;14.05;;;;;;;9.16;98.48;101976.78;10487659;28;20529;-85
2021/10/17 21:35:55;;;;;;;19.05;13.23;;;;;;;9.29;97.82;101976.41;10494398;28;20056;-84
2021/10/17 21:40:57;;;;;;;22.75;13.52;;;;;;;9.11;99.02;101976.59;10495245;28;20098;-85
2021/10/17 21:45:58;;;;;;;15.68;13.98;;;;;;;9.18;98.32;101985.44;10456791;28;20507;-85
2021/10/17 21:51:00;;;;;;;18.63;13.65;;;;;;;9.32;99.25;101986.00;10494350;28;20049;-85
2021/10/17 21:56:02;;;;;;;20.48;11.77;;;;;;;9.18;98.96;101994.06;10485648;28;20507;-85
2021/10/17 22:01:03;;;;;;;18.20;13.57;;;;;;;9.23;97.91;102002.88;10494402;28;20049;-84
2021/10/17 22:06:05;;;;;;;13.10;10.70;;;;;;;9.20;100.00;102005.34;10460840;28;20113;-85
2021/10/17 22:11:08;;;;;;;20.48;12.50;;;;;;;9.21;100.00;102013.97;10497506;28;20094;-85
2021/10/17 22:16:10;;;;;;;17.63;12.20;;;;;;;9.12;100.00;102022.22;10478489;28;20098;-84
2021/10/17 22:21:12;;;;;;;15.55;11.07;;;;;;;9.09;100.00;102010.91;10495301;28;20071;-85
2021/10/17 22:26:13;;;;;;;15.25;12.10;;;;;;;9.15;100.00;102012.03;10484418;28;20148;-85
2021/10/17 22:31:15;;;;;;;17.20;13.10;;;;;;;9.24;98.93;102020.13;10497483;28;20394;-85
2021/10/17 22:36:17;;;;;;;19.08;13.55;;;;;;;9.39;95.99;102025.00;10482699;28;20048;-85
2021/10/17 22:41:19;;;;;;;18.10;12.18;;;;;;;9.39;95.87;102018.97;10493623;28;20044;-85
2021/10/17 22:46:20;;;;;;;17.88;12.90;;;;;;;9.38;95.53;101996.56;10484163;28;20059;-85
2021/10/17 22:51:22;;;;;;;17.13;12.98;;;;;;;9.40;95.22;101997.47;10490639;28;20102;-85
2021/10/17 22:56:23;;;;;;;20.27;12.70;;;;;;;9.46;94.40;101996.00;10487586;28;20382;-85
2021/10/17 23:01:26;;;;;;;16.70;12.63;;;;;;;9.36;95.39;102005.94;10485943;28;20496;-85